Terminal Aerodrome Forecast
Issued by NWS Duluth, MN

Home | Current Version | Previous Version | Text Only | Print | Product List | Glossary On
Versions: 1 2 3 4 5 6 7 8 9 10 11 12 13 14 15
865
FTUS43 KDLH 290526
TAFINL
TAF
KINL 290526Z 2906/3006 05005KT P6SM SKC
     FM290900 11005KT P6SM SCT250
     FM291600 14010KT P6SM BKN200=

USA.gov is the U.S. government's official web portal to all federal, state and local government web resources and services.